createdAt,value
2018-04-26T00:01:19.220Z,1.70
2018-04-26T00:03:50.376Z,1.50
2018-04-26T00:06:22.509Z,1.50
2018-04-26T00:08:52.817Z,1.17
2018-04-26T00:11:23.203Z,1.60
2018-04-26T00:13:53.548Z,1.40
2018-04-26T00:16:23.911Z,1.87
2018-04-26T00:18:54.244Z,2.70
2018-04-26T00:21:24.586Z,1.20
2018-04-26T00:23:55.692Z,1.27
2018-04-26T00:26:26.074Z,1.60
2018-04-26T00:28:56.440Z,1.80
2018-04-26T00:31:26.780Z,1.67
2018-04-26T00:33:57.179Z,1.90
2018-04-26T00:36:31.574Z,1.63
2018-04-26T00:39:02.191Z,2.10
2018-04-26T00:41:33.353Z,2.17
2018-04-26T00:44:03.699Z,1.40
2018-04-26T00:46:40.170Z,1.43
2018-04-26T00:49:30.650Z,1.87
2018-04-26T00:52:03.815Z,2.50
2018-04-26T00:54:34.946Z,2.07
2018-04-26T00:57:05.301Z,2.40
2018-04-26T00:59:35.916Z,1.67
2018-04-26T01:02:06.991Z,1.93
2018-04-26T01:04:37.298Z,1.93
2018-04-26T01:07:07.666Z,1.80
2018-04-26T01:09:38.006Z,1.50
2018-04-26T01:12:08.358Z,1.73
2018-04-26T01:14:39.487Z,1.80
2018-04-26T01:17:09.841Z,2.17
2018-04-26T01:19:40.143Z,1.73
2018-04-26T01:22:11.309Z,2.10
2018-04-26T01:24:41.657Z,2.30
2018-04-26T01:27:12.001Z,2.70
2018-04-26T01:29:46.454Z,2.07
2018-04-26T01:32:16.816Z,1.57
2018-04-26T01:34:47.170Z,2.50
2018-04-26T01:37:49.217Z,2.50
2018-04-26T01:40:19.572Z,3.00
2018-04-26T01:43:09.316Z,2.63
2018-04-26T01:45:41.717Z,1.70
2018-04-26T01:48:34.509Z,2.20
2018-04-26T01:51:04.851Z,1.63
2018-04-26T01:53:35.978Z,2.03
2018-04-26T01:56:06.303Z,1.80
2018-04-26T01:58:37.685Z,1.90
2018-04-26T02:01:08.110Z,2.43
2018-04-26T02:03:57.749Z,1.93
2018-04-26T02:06:28.108Z,2.10
2018-04-26T02:08:59.186Z,3.07
2018-04-26T02:11:31.630Z,2.63
2018-04-26T02:14:23.058Z,1.87
2018-04-26T02:16:53.449Z,2.07
2018-04-26T02:19:23.804Z,2.07
2018-04-26T02:21:54.145Z,2.07
2018-04-26T02:24:24.538Z,2.10
2018-04-26T02:26:55.659Z,1.77
2018-04-26T02:29:26.021Z,2.03
2018-04-26T02:31:56.385Z,2.17
2018-04-26T02:34:26.733Z,1.83
2018-04-26T02:36:57.067Z,1.97
2018-04-26T02:39:27.452Z,2.47
2018-04-26T02:42:01.908Z,2.63
2018-04-26T02:44:32.353Z,2.33
2018-04-26T02:47:03.403Z,2.23
2018-04-26T02:49:33.747Z,1.80
2018-04-26T02:52:04.091Z,2.07
2018-04-26T02:54:38.548Z,1.97
2018-04-26T02:57:08.852Z,2.10
2018-04-26T02:59:39.201Z,1.57
2018-04-26T03:02:09.590Z,2.40
2018-04-26T03:04:41.977Z,1.60
2018-04-26T03:07:12.555Z,1.47
2018-04-26T03:12:26.080Z,2.00
2018-04-26T03:14:56.458Z,2.13
2018-04-26T03:17:26.818Z,1.93
2018-04-26T03:19:57.157Z,2.03
2018-04-26T03:22:27.534Z,1.97
2018-04-26T03:24:57.888Z,2.30
2018-04-26T03:27:28.236Z,1.60
2018-04-26T03:29:58.608Z,1.70
2018-04-26T03:32:28.954Z,2.43
2018-04-26T03:35:04.467Z,2.57
2018-04-26T03:37:35.589Z,2.43
2018-04-26T03:40:07.981Z,2.00
2018-04-26T03:42:38.340Z,1.80
2018-04-26T03:45:08.716Z,2.03
2018-04-26T03:47:39.071Z,2.13
2018-04-26T03:50:09.453Z,1.93
2018-04-26T03:52:39.810Z,1.87
2018-04-26T03:55:10.914Z,1.93
2018-04-26T03:57:41.294Z,2.20
2018-04-26T04:00:59.852Z,2.20
2018-04-26T04:04:24.546Z,2.03
2018-04-26T04:06:54.893Z,2.70
2018-04-26T04:09:27.027Z,2.13
2018-04-26T04:11:58.153Z,1.90
2018-04-26T04:14:28.513Z,2.03
2018-04-26T04:16:58.873Z,1.80
2018-04-26T04:19:48.617Z,1.77
2018-04-26T04:22:18.975Z,1.80
2018-04-26T04:25:08.722Z,2.17
2018-04-26T04:27:39.032Z,1.90
2018-04-26T04:30:10.108Z,2.17
2018-04-26T04:32:40.486Z,2.87
2018-04-26T04:35:10.857Z,1.83
2018-04-26T04:37:41.181Z,2.07
2018-04-26T04:40:11.542Z,1.50
2018-04-26T04:42:41.879Z,2.50
2018-04-26T04:45:12.478Z,1.97
2018-04-26T04:47:43.586Z,1.93
2018-04-26T04:50:14.697Z,2.33
2018-04-26T04:52:45.027Z,1.87
2018-04-26T04:55:15.412Z,2.07
2018-04-26T04:57:45.756Z,2.17
2018-04-26T05:00:16.111Z,1.97
2018-04-26T05:02:46.486Z,2.83
2018-04-26T05:05:16.850Z,2.10
2018-04-26T05:07:47.218Z,2.80
2018-04-26T05:10:18.592Z,1.90
2018-04-26T05:12:56.559Z,1.97
2018-04-26T05:15:27.721Z,2.47
2018-04-26T05:17:58.064Z,2.10
2018-04-26T05:20:28.401Z,2.17
2018-04-26T05:22:58.760Z,2.23
2018-04-26T05:25:29.103Z,2.57
2018-04-26T05:28:00.200Z,1.73
2018-04-26T05:30:31.595Z,2.50
2018-04-26T05:33:02.705Z,2.37
2018-04-26T05:35:33.040Z,1.77
2018-04-26T05:38:03.435Z,1.90
2018-04-26T05:40:35.894Z,2.47
2018-04-26T05:43:28.368Z,2.40
2018-04-26T05:45:59.748Z,2.53
2018-04-26T05:48:30.105Z,2.30
2018-04-26T05:51:00.445Z,2.20
2018-04-26T05:53:30.780Z,2.27
2018-04-26T05:56:23.346Z,2.17
2018-04-26T05:58:53.684Z,1.93
2018-04-26T06:01:24.046Z,2.97
2018-04-26T06:03:55.161Z,2.17
2018-04-26T06:06:25.520Z,2.20
2018-04-26T06:08:55.883Z,3.20
2018-04-26T06:11:44.574Z,2.40
2018-04-26T06:14:14.913Z,2.73
2018-04-26T06:16:46.014Z,2.73
2018-04-26T06:19:18.418Z,2.27
2018-04-26T06:21:49.548Z,1.83
2018-04-26T06:24:19.911Z,2.23
2018-04-26T06:26:50.274Z,2.77
2018-04-26T06:29:41.030Z,2.70
2018-04-26T06:32:12.188Z,2.73
2018-04-26T06:34:42.545Z,2.20
2018-04-26T06:37:12.881Z,3.03
2018-04-26T06:40:04.679Z,1.93
2018-04-26T06:42:35.025Z,2.27
2018-04-26T06:45:09.450Z,2.10
2018-04-26T06:48:01.243Z,1.63
2018-04-26T06:50:31.566Z,1.90
2018-04-26T06:53:01.952Z,2.13
2018-04-26T06:55:32.332Z,2.17
2018-04-26T06:58:02.678Z,2.23
2018-04-26T07:00:33.058Z,2.50
2018-04-26T07:03:03.422Z,2.37
2018-04-26T07:05:35.832Z,2.07
2018-04-26T07:08:06.193Z,2.10
2018-04-26T07:10:37.339Z,2.27
2018-04-26T07:13:07.691Z,2.60
2018-04-26T07:15:44.212Z,2.77
2018-04-26T07:18:15.343Z,2.70
2018-04-26T07:20:45.695Z,2.63
2018-04-26T07:23:17.148Z,2.47
2018-04-26T07:25:48.273Z,2.67
2018-04-26T07:31:07.143Z,2.43
2018-04-26T07:33:37.444Z,2.17
2018-04-26T07:36:07.786Z,2.27
2018-04-26T07:38:38.165Z,2.40
2018-04-26T07:41:08.517Z,2.23
2018-04-26T07:43:59.016Z,2.37
2018-04-26T07:46:36.480Z,2.63
2018-04-26T07:49:06.859Z,2.60
2018-04-26T07:51:37.224Z,2.00
2018-04-26T07:54:07.582Z,2.70
2018-04-26T07:56:37.981Z,2.63
2018-04-26T07:59:08.336Z,1.70
2018-04-26T08:01:38.718Z,1.90
2018-04-26T08:04:09.062Z,1.93
2018-04-26T08:06:39.422Z,2.60
2018-04-26T08:09:09.763Z,2.53
2018-04-26T08:11:40.173Z,2.17
2018-04-26T08:14:12.798Z,3.17
2018-04-26T08:16:43.922Z,1.77
2018-04-26T08:19:14.306Z,2.13
2018-04-26T08:22:03.773Z,2.20
2018-04-26T08:24:36.181Z,2.23
2018-04-26T08:27:06.552Z,2.50
2018-04-26T08:29:36.926Z,2.37
2018-04-26T08:32:09.341Z,1.53
2018-04-26T08:34:39.712Z,2.17
2018-04-26T08:37:31.517Z,2.30
2018-04-26T08:40:01.875Z,2.40
2018-04-26T08:42:32.220Z,2.67
2018-04-26T08:45:02.596Z,2.13
2018-04-26T08:47:32.978Z,2.80
2018-04-26T08:50:03.311Z,1.87
2018-04-26T08:52:33.685Z,1.90
2018-04-26T08:55:09.145Z,1.80
2018-04-26T08:57:39.522Z,2.30
2018-04-26T09:00:10.627Z,2.47
2018-04-26T09:02:41.003Z,2.43
2018-04-26T09:05:11.392Z,2.23
2018-04-26T09:07:42.770Z,2.17
2018-04-26T09:10:16.522Z,2.73
2018-04-26T09:13:06.987Z,2.20
2018-04-26T09:15:38.703Z,2.27
2018-04-26T09:18:07.706Z,1.93
2018-04-26T09:20:38.061Z,2.10
2018-04-26T09:23:08.457Z,2.33
2018-04-26T09:25:39.601Z,2.37
2018-04-26T09:28:09.963Z,2.27
2018-04-26T09:30:40.289Z,2.27
2018-04-26T09:33:10.643Z,1.60
2018-04-26T09:35:41.764Z,2.00
2018-04-26T09:38:12.169Z,2.13
2018-04-26T09:40:43.359Z,2.17
2018-04-26T09:43:14.372Z,1.97
2018-04-26T09:45:44.751Z,1.90
2018-04-26T09:48:15.089Z,2.43
2018-04-26T09:50:45.452Z,1.83
2018-04-26T09:53:15.829Z,1.63
2018-04-26T09:55:46.195Z,2.23
2018-04-26T09:58:16.557Z,2.37
2018-04-26T10:00:54.271Z,2.57
2018-04-26T10:03:27.279Z,1.80
2018-04-26T10:05:57.577Z,1.47
2018-04-26T10:08:27.964Z,1.73
2018-04-26T10:10:58.300Z,2.23
2018-04-26T10:13:32.756Z,2.03
2018-04-26T10:16:03.134Z,1.70
2018-04-26T10:18:33.548Z,1.43
2018-04-26T10:21:03.852Z,1.50
2018-04-26T10:23:34.193Z,1.77
2018-04-26T10:26:04.550Z,1.87
2018-04-26T10:28:35.943Z,1.73
2018-04-26T10:31:06.329Z,1.60
2018-04-26T10:33:36.693Z,1.20
2018-04-26T10:36:07.000Z,1.50
2018-04-26T10:38:37.481Z,1.27
2018-04-26T10:41:08.585Z,1.33
2018-04-26T10:43:38.957Z,1.50
2018-04-26T10:46:09.322Z,1.90
2018-04-26T10:48:39.695Z,1.27
2018-04-26T10:51:10.807Z,1.90
2018-04-26T10:53:41.183Z,1.30
2018-04-26T10:56:12.571Z,1.03
2018-04-26T10:58:42.915Z,1.53
2018-04-26T11:01:13.253Z,1.17
2018-04-26T11:03:44.362Z,1.67
2018-04-26T11:06:14.708Z,1.37
2018-04-26T11:08:45.090Z,1.30
2018-04-26T11:11:15.520Z,1.40
2018-04-26T11:13:45.796Z,2.17
2018-04-26T11:16:16.945Z,1.33
2018-04-26T11:18:49.074Z,1.33
2018-04-26T11:21:39.856Z,1.67
2018-04-26T11:24:12.273Z,1.37
2018-04-26T11:26:42.629Z,1.30
2018-04-26T11:29:13.812Z,1.17
2018-04-26T11:31:44.141Z,1.60
2018-04-26T11:34:35.927Z,1.30
2018-04-26T11:37:07.052Z,1.07
2018-04-26T11:39:37.411Z,1.60
2018-04-26T11:44:56.089Z,1.90
2018-04-26T11:47:26.472Z,1.00
2018-04-26T11:49:57.854Z,1.37
2018-04-26T11:52:28.276Z,1.53
2018-04-26T11:54:58.612Z,1.73
2018-04-26T11:57:28.969Z,1.53
2018-04-26T11:59:59.337Z,1.23
2018-04-26T12:02:31.574Z,1.43
2018-04-26T12:05:01.878Z,1.03
2018-04-26T12:07:32.233Z,1.43
2018-04-26T12:10:02.566Z,1.37
2018-04-26T12:12:32.900Z,1.60
2018-04-26T12:15:03.276Z,1.43
2018-04-26T12:17:33.674Z,1.47
2018-04-26T12:20:04.791Z,1.07
2018-04-26T12:22:35.134Z,1.17
2018-04-26T12:25:06.235Z,1.40
2018-04-26T12:27:36.582Z,1.10
2018-04-26T12:30:06.939Z,1.50
2018-04-26T12:32:37.298Z,1.17
2018-04-26T12:35:14.807Z,1.30
2018-04-26T12:37:49.265Z,1.93
2018-04-26T12:40:20.375Z,1.47
2018-04-26T12:42:51.701Z,1.57
2018-04-26T12:45:22.285Z,1.17
2018-04-26T12:47:53.418Z,1.50
2018-04-26T12:50:23.731Z,1.20
2018-04-26T12:52:54.055Z,1.87
2018-04-26T12:55:24.362Z,1.47
2018-04-26T12:57:54.701Z,1.70
2018-04-26T13:00:25.071Z,1.53
2018-04-26T13:02:56.185Z,1.50
2018-04-26T13:05:26.541Z,1.50
2018-04-26T13:07:57.719Z,2.00
2018-04-26T13:10:28.055Z,1.27
2018-04-26T13:13:20.669Z,1.60
2018-04-26T13:15:51.026Z,1.00
2018-04-26T13:18:42.828Z,1.20
2018-04-26T13:21:13.236Z,1.00
2018-04-26T13:23:46.607Z,1.10
2018-04-26T13:26:17.139Z,1.10
2018-04-26T13:29:07.481Z,1.83
2018-04-26T13:31:37.874Z,1.70
2018-04-26T13:34:08.978Z,1.13
2018-04-26T13:36:39.337Z,1.00
2018-04-26T13:39:10.723Z,1.60
2018-04-26T13:41:41.062Z,1.00
2018-04-26T13:44:11.422Z,1.63
2018-04-26T13:46:41.804Z,1.17
2018-04-26T13:49:12.159Z,1.20
2018-04-26T13:51:43.538Z,1.20
2018-04-26T13:54:13.925Z,1.33
2018-04-26T13:56:46.314Z,1.37
2018-04-26T13:59:17.677Z,1.73
2018-04-26T14:01:48.017Z,1.07
2018-04-26T14:04:18.378Z,1.33
2018-04-26T14:06:48.724Z,1.40
2018-04-26T14:09:40.596Z,1.13
2018-04-26T14:12:11.821Z,1.73
2018-04-26T14:14:42.083Z,1.47
2018-04-26T14:17:13.239Z,1.00
2018-04-26T14:19:43.602Z,1.17
2018-04-26T14:22:13.977Z,1.23
2018-04-26T14:24:45.123Z,1.77
2018-04-26T14:27:16.250Z,1.30
2018-04-26T14:29:47.361Z,1.30
2018-04-26T14:32:17.941Z,1.03
2018-04-26T14:34:49.263Z,1.40
2018-04-26T14:37:19.669Z,1.20
2018-04-26T14:39:50.015Z,1.33
2018-04-26T14:42:20.387Z,1.53
2018-04-26T14:44:50.736Z,1.60
2018-04-26T14:47:40.474Z,1.33
2018-04-26T14:50:11.588Z,1.10
2018-04-26T14:52:41.944Z,1.47
2018-04-26T14:55:12.344Z,1.23
2018-04-26T14:57:42.695Z,1.63
2018-04-26T15:00:13.046Z,1.00
2018-04-26T15:02:44.447Z,1.47
2018-04-26T15:05:14.755Z,1.50
2018-04-26T15:07:45.120Z,1.47
2018-04-26T15:10:16.227Z,1.83
2018-04-26T15:12:46.577Z,1.47
2018-04-26T15:15:17.008Z,1.27
2018-04-26T15:17:48.010Z,1.70
2018-04-26T15:20:18.357Z,1.53
2018-04-26T15:22:48.694Z,1.50
2018-04-26T15:25:19.061Z,2.00
2018-04-26T15:27:49.376Z,1.67
2018-04-26T15:30:19.734Z,1.13
2018-04-26T15:33:09.466Z,1.53
2018-04-26T15:35:40.577Z,2.10
2018-04-26T15:38:10.945Z,1.27
2018-04-26T15:40:41.332Z,0.93
2018-04-26T15:43:11.702Z,2.17
2018-04-26T15:45:43.064Z,1.90
2018-04-26T15:48:15.469Z,1.83
2018-04-26T15:50:45.808Z,2.00
2018-04-26T15:54:11.224Z,1.67
2018-04-26T15:57:46.136Z,1.50
2018-04-26T16:01:27.424Z,1.73
2018-04-26T16:08:53.290Z,1.77
2018-04-26T16:12:36.487Z,1.63
2018-04-26T16:15:43.024Z,2.07
2018-04-26T16:19:08.131Z,1.43
2018-04-26T16:22:51.938Z,1.57
2018-04-26T16:26:19.128Z,2.35
2018-04-26T16:29:44.037Z,1.73
2018-04-26T16:33:09.118Z,1.47
2018-04-26T16:36:35.090Z,2.40
2018-04-26T16:39:13.823Z,2.00
2018-04-26T16:41:44.951Z,1.60
2018-04-26T16:44:16.079Z,1.30
2018-04-26T16:46:46.380Z,1.10
2018-04-26T16:49:18.797Z,1.33
2018-04-26T16:51:49.924Z,1.83
2018-04-26T16:54:20.293Z,1.73
2018-04-26T16:56:50.664Z,1.60
2018-04-26T16:59:20.991Z,1.77
2018-04-26T17:01:51.339Z,1.50
2018-04-26T17:04:21.828Z,1.37
2018-04-26T17:06:52.082Z,1.20
2018-04-26T17:09:22.420Z,1.43
2018-04-26T17:11:52.804Z,1.47
2018-04-26T17:14:29.301Z,1.53
2018-04-26T17:16:59.685Z,1.43
2018-04-26T17:19:29.979Z,1.60
2018-04-26T17:22:01.107Z,1.73
2018-04-26T17:24:32.240Z,1.87
2018-04-26T17:27:02.575Z,2.30
2018-04-26T17:29:32.944Z,1.93
2018-04-26T17:32:03.326Z,1.63
2018-04-26T17:34:33.669Z,1.70
2018-04-26T17:37:04.765Z,1.40
2018-04-26T17:39:35.154Z,1.80
2018-04-26T17:42:05.513Z,1.20
2018-04-26T17:44:35.816Z,1.57
2018-04-26T17:47:09.249Z,1.40
2018-04-26T17:49:39.606Z,2.03
2018-04-26T17:52:09.954Z,2.07
2018-04-26T17:54:40.317Z,2.17
2018-04-26T17:57:10.673Z,2.87
2018-04-26T17:59:41.013Z,2.07
2018-04-26T18:02:12.212Z,1.67
2018-04-26T18:04:47.689Z,1.33
2018-04-26T18:07:18.072Z,1.97
2018-04-26T18:09:52.517Z,1.37
2018-04-26T18:12:22.859Z,1.77
2018-04-26T18:14:53.243Z,1.97
2018-04-26T18:17:30.764Z,2.00
2018-04-26T18:20:08.571Z,2.60
2018-04-26T18:22:31.483Z,2.53
2018-04-26T18:25:02.977Z,2.57
2018-04-26T18:27:33.202Z,2.63
2018-04-26T18:30:03.546Z,2.53
2018-04-26T18:32:34.644Z,2.13
2018-04-26T18:35:10.089Z,2.77
2018-04-26T18:37:47.601Z,3.00
2018-04-26T18:40:17.981Z,3.10
2018-04-26T18:42:48.326Z,2.87
2018-04-26T18:45:24.823Z,3.03
2018-04-26T18:47:55.163Z,2.27
2018-04-26T18:50:25.505Z,2.63
2018-04-26T18:52:55.864Z,2.87
2018-04-26T18:55:28.263Z,2.43
2018-04-26T18:57:58.649Z,2.43
2018-04-26T19:00:28.985Z,1.90
2018-04-26T19:03:00.319Z,1.90
2018-04-26T19:05:31.418Z,1.43
2018-04-26T19:08:02.133Z,1.60
2018-04-26T19:10:32.433Z,1.60
2018-04-26T19:13:02.806Z,1.53
2018-04-26T19:15:33.176Z,1.97
2018-04-26T19:18:03.536Z,1.30
2018-04-26T19:20:56.078Z,2.33
2018-04-26T19:23:26.349Z,1.77
2018-04-26T19:25:57.451Z,1.77
2018-04-26T19:28:48.216Z,1.60
2018-04-26T19:31:18.581Z,2.33
2018-04-26T19:33:48.919Z,2.20
2018-04-26T19:36:19.301Z,2.63
2018-04-26T19:38:49.637Z,2.10
2018-04-26T19:41:23.067Z,2.27
2018-04-26T19:43:53.448Z,2.80
2018-04-26T19:46:23.804Z,2.63
2018-04-26T19:48:58.230Z,2.50
2018-04-26T19:51:28.614Z,2.80
2018-04-26T19:53:58.945Z,2.87
2018-04-26T19:56:29.248Z,2.97
2018-04-26T19:59:00.382Z,3.03
2018-04-26T20:01:30.721Z,3.27
2018-04-26T20:04:01.846Z,3.17
2018-04-26T20:06:32.170Z,3.23
2018-04-26T20:09:02.513Z,2.63
2018-04-26T20:11:33.608Z,2.80
2018-04-26T20:14:03.979Z,2.83
2018-04-26T20:16:35.048Z,2.77
2018-04-26T20:19:05.360Z,3.23
2018-04-26T20:21:36.490Z,3.37
2018-04-26T20:24:07.587Z,3.30
2018-04-26T20:29:28.921Z,3.40
2018-04-26T20:31:59.306Z,3.20
2018-04-26T20:34:31.431Z,3.63
2018-04-26T20:37:01.801Z,2.70
2018-04-26T20:39:32.930Z,3.63
2018-04-26T20:42:04.048Z,3.20
2018-04-26T20:44:49.181Z,2.97
2018-04-26T20:47:19.515Z,3.57
2018-04-26T20:49:49.872Z,3.70
2018-04-26T20:52:20.542Z,3.93
2018-04-26T20:54:51.164Z,3.80
2018-04-26T20:57:22.265Z,3.80
2018-04-26T20:59:52.632Z,4.47
2018-04-26T21:02:23.791Z,3.90
2018-04-26T21:04:54.052Z,3.50
2018-04-26T21:07:45.828Z,3.47
2018-04-26T21:10:16.929Z,3.40
2018-04-26T21:12:47.505Z,3.57
2018-04-26T21:15:18.628Z,2.90
2018-04-26T21:17:48.970Z,3.23
2018-04-26T21:20:21.104Z,3.50
2018-04-26T21:22:51.463Z,3.20
2018-04-26T21:25:22.565Z,3.40
2018-04-26T21:28:13.287Z,2.87
2018-04-26T21:30:43.587Z,3.00
2018-04-26T21:33:17.008Z,3.17
2018-04-26T21:35:47.433Z,3.00
2018-04-26T21:38:18.474Z,2.43
2018-04-26T21:40:48.773Z,2.63
2018-04-26T21:43:19.163Z,2.80
2018-04-26T21:45:49.501Z,2.53
2018-04-26T21:48:19.848Z,2.50
2018-04-26T21:51:07.921Z,2.60
2018-04-26T21:53:56.210Z,2.23
2018-04-26T21:56:44.875Z,2.83
2018-04-26T21:59:33.135Z,2.87
2018-04-26T22:02:24.895Z,2.90
2018-04-26T22:05:04.129Z,2.50
2018-04-26T22:07:34.464Z,2.60
2018-04-26T22:10:04.802Z,2.27
2018-04-26T22:12:35.927Z,2.60
2018-04-26T22:15:06.380Z,2.43
2018-04-26T22:17:39.716Z,3.23
2018-04-26T22:20:29.471Z,3.30
2018-04-26T22:22:59.864Z,3.03
2018-04-26T22:25:30.179Z,3.00
2018-04-26T22:28:00.551Z,3.00
2018-04-26T22:30:30.885Z,2.87
2018-04-26T22:33:01.220Z,3.17
2018-04-26T22:35:31.602Z,3.50
2018-04-26T22:38:01.913Z,3.57
2018-04-26T22:40:32.264Z,3.30
2018-04-26T22:43:03.360Z,3.20
2018-04-26T22:45:33.723Z,3.20
2018-04-26T22:48:04.824Z,2.67
2018-04-26T22:50:53.527Z,3.10
2018-04-26T22:53:24.647Z,3.17
2018-04-26T22:55:54.990Z,2.40
2018-04-26T22:58:26.147Z,3.00
2018-04-26T23:00:57.263Z,2.50
2018-04-26T23:03:27.575Z,2.80
2018-04-26T23:05:57.909Z,2.80
2018-04-26T23:08:28.207Z,2.87
2018-04-26T23:11:05.759Z,2.40
2018-04-26T23:13:36.865Z,2.57
2018-04-26T23:16:07.223Z,2.83
2018-04-26T23:18:38.361Z,2.30
2018-04-26T23:21:08.674Z,2.50
2018-04-26T23:23:39.009Z,2.53
2018-04-26T23:26:10.170Z,3.00
2018-04-26T23:28:40.525Z,2.63
2018-04-26T23:31:17.028Z,3.03
2018-04-26T23:33:47.361Z,2.87
2018-04-26T23:36:17.700Z,2.60
2018-04-26T23:38:48.816Z,2.83
2018-04-26T23:41:19.179Z,2.73
2018-04-26T23:43:50.296Z,2.17
2018-04-26T23:46:20.674Z,2.00
2018-04-26T23:48:51.035Z,2.80
2018-04-26T23:51:21.392Z,2.50
2018-04-26T23:53:52.538Z,2.63
2018-04-26T23:56:23.664Z,2.27
2018-04-26T23:58:54.006Z,2.10
